Time,TemperatureF,DewpointF,PressureIn,WindDirection,WindDirectionDegrees,WindSpeedMPH,WindSpeedGustMPH,Humidity,HourlyPrecipIn,Conditions,Clouds,dailyrainin,SoftwareType,DateUTC
2013-01-13 00:00:00,44.8,40.6,29.43,ESE,113,0.4,0.4,85,0.00,,,0.00,WUHU216HW,2013-01-13 05:00:00,
2013-01-13 00:01:00,44.8,40.6,29.43,ESE,113,0.4,0.4,85,0.00,,,0.00,WUHU216HW,2013-01-13 05:01:00,
2013-01-13 00:03:00,44.8,40.6,29.43,ESE,113,0.4,0.4,85,0.00,,,0.00,WUHU216HW,2013-01-13 05:03:00,
2013-01-13 00:08:00,44.8,40.6,29.43,ESE,113,0.4,0.4,85,0.00,,,0.00,WUHU216HW,2013-01-13 05:08:00,
2013-01-13 00:30:00,44.1,40.1,29.41,SW,225,0.4,0.4,86,0.00,,,0.00,WUHU216HW,2013-01-13 05:30:00,
2013-01-13 00:35:00,44.1,40.1,29.41,SW,225,0.4,0.4,86,0.00,,,0.00,WUHU216HW,2013-01-13 05:35:00,
2013-01-13 01:00:00,43.4,39.4,29.41,WSW,248,0.0,0.0,86,0.00,,,0.00,WUHU216HW,2013-01-13 06:00:00,
2013-01-13 01:05:00,43.4,39.4,29.41,WSW,248,0.0,0.0,86,0.00,,,0.00,WUHU216HW,2013-01-13 06:05:00,
2013-01-13 01:29:00,42.8,38.9,29.40,WSW,248,0.0,0.0,86,0.00,,,0.00,WUHU216HW,2013-01-13 06:29:00,
2013-01-13 01:30:00,42.8,38.9,29.40,WSW,248,0.0,0.0,86,0.00,,,0.00,WUHU216HW,2013-01-13 06:30:00,
2013-01-13 01:35:00,42.8,38.9,29.40,WSW,248,0.0,0.0,86,0.00,,,0.00,WUHU216HW,2013-01-13 06:35:00,
2013-01-13 02:00:00,42.5,38.5,29.41,South,180,0.2,0.2,86,0.00,,,0.00,WUHU216HW,2013-01-13 07:00:00,
2013-01-13 02:05:00,42.5,38.5,29.41,South,180,0.2,0.2,86,0.00,,,0.00,WUHU216HW,2013-01-13 07:05:00,
2013-01-13 02:30:00,41.6,37.6,29.41,East,90,1.3,1.3,86,0.00,,,0.00,WUHU216HW,2013-01-13 07:30:00,
2013-01-13 02:35:00,41.6,37.6,29.41,East,90,1.3,1.3,86,0.00,,,0.00,WUHU216HW,2013-01-13 07:35:00,
2013-01-13 03:00:00,41.2,37.3,29.39,NE,45,0.2,0.2,86,0.00,,,0.00,WUHU216HW,2013-01-13 08:00:00,
2013-01-13 03:05:00,41.2,37.3,29.39,NE,45,0.2,0.2,86,0.00,,,0.00,WUHU216HW,2013-01-13 08:05:00,
2013-01-13 03:30:00,40.9,36.6,29.38,WSW,248,0.4,0.4,85,0.00,,,0.00,WUHU216HW,2013-01-13 08:30:00,
2013-01-13 03:35:00,40.9,36.6,29.38,WSW,248,0.4,0.4,85,0.00,,,0.00,WUHU216HW,2013-01-13 08:35:00,
2013-01-13 04:00:00,40.3,36.5,29.36,WNW,293,0.0,0.0,86,0.00,,,0.00,WUHU216HW,2013-01-13 09:00:00,
2013-01-13 04:05:00,40.3,36.5,29.36,WNW,293,0.0,0.0,86,0.00,,,0.00,WUHU216HW,2013-01-13 09:05:00,
2013-01-13 04:30:00,40.0,35.8,29.35,WNW,293,1.1,1.1,85,0.00,,,0.00,WUHU216HW,2013-01-13 09:30:00,
2013-01-13 04:35:00,40.0,35.8,29.35,WNW,293,1.1,1.1,85,0.00,,,0.00,WUHU216HW,2013-01-13 09:35:00,
2013-01-13 05:00:00,40.3,35.8,29.35,SE,135,1.1,1.1,84,0.00,,,0.00,WUHU216HW,2013-01-13 10:00:00,
2013-01-13 05:05:00,40.3,35.8,29.35,SE,135,1.1,1.1,84,0.00,,,0.00,WUHU216HW,2013-01-13 10:05:00,
2013-01-13 05:30:00,39.4,35.3,29.34,ESE,113,0.0,0.0,85,0.00,,,0.00,WUHU216HW,2013-01-13 10:30:00,
2013-01-13 05:35:00,39.4,35.3,29.34,ESE,113,0.0,0.0,85,0.00,,,0.00,WUHU216HW,2013-01-13 10:35:00,
2013-01-13 06:00:00,39.1,34.9,29.34,NE,45,1.1,1.1,85,0.00,,,0.00,WUHU216HW,2013-01-13 11:00:00,
2013-01-13 06:05:00,39.1,34.9,29.34,NE,45,1.1,1.1,85,0.00,,,0.00,WUHU216HW,2013-01-13 11:05:00,
2013-01-13 06:30:00,38.3,34.5,29.34,NW,315,1.1,1.1,86,0.00,,,0.00,WUHU216HW,2013-01-13 11:30:00,
2013-01-13 06:35:00,38.3,34.5,29.34,NW,315,1.1,1.1,86,0.00,,,0.00,WUHU216HW,2013-01-13 11:35:00,
2013-01-13 07:00:00,38.3,33.9,29.34,North,0,1.8,1.8,84,0.00,,,0.00,WUHU216HW,2013-01-13 12:00:00,
2013-01-13 07:05:00,38.3,33.9,29.34,North,0,1.8,1.8,84,0.00,,,0.00,WUHU216HW,2013-01-13 12:05:00,
2013-01-13 07:30:00,37.6,33.5,29.35,NNW,338,0.0,0.0,85,0.00,,,0.00,WUHU216HW,2013-01-13 12:30:00,
2013-01-13 07:35:00,37.6,33.5,29.35,NNW,338,0.0,0.0,85,0.00,,,0.00,WUHU216HW,2013-01-13 12:35:00,
2013-01-13 08:00:00,37.1,32.9,29.36,ENE,68,1.8,1.8,85,0.00,,,0.00,WUHU216HW,2013-01-13 13:00:00,
2013-01-13 08:05:00,37.1,32.9,29.36,ENE,68,1.8,1.8,85,0.00,,,0.00,WUHU216HW,2013-01-13 13:05:00,
2013-01-13 08:30:00,37.4,33.0,29.37,NE,45,1.1,1.1,84,0.00,,,0.00,WUHU216HW,2013-01-13 13:30:00,
2013-01-13 08:35:00,37.4,33.0,29.37,NE,45,1.1,1.1,84,0.00,,,0.00,WUHU216HW,2013-01-13 13:35:00,
2013-01-13 09:00:00,40.7,33.7,29.40,North,0,0.7,0.7,76,0.00,,,0.00,WUHU216HW,2013-01-13 14:00:00,
2013-01-13 09:05:00,40.7,33.7,29.40,North,0,0.7,0.7,76,0.00,,,0.00,WUHU216HW,2013-01-13 14:05:00,
2013-01-13 09:30:00,43.6,36.2,29.39,SE,135,4.0,4.0,75,0.00,,,0.00,WUHU216HW,2013-01-13 14:30:00,
2013-01-13 09:35:00,43.6,36.2,29.39,SE,135,4.0,4.0,75,0.00,,,0.00,WUHU216HW,2013-01-13 14:35:00,
2013-01-13 10:00:00,45.5,38.1,29.40,SE,135,2.2,2.2,75,0.00,,,0.00,WUHU216HW,2013-01-13 15:00:00,
2013-01-13 10:05:00,45.5,38.1,29.40,SE,135,2.2,2.2,75,0.00,,,0.00,WUHU216HW,2013-01-13 15:05:00,
2013-01-13 10:30:00,47.5,40.3,29.39,ENE,68,4.5,4.5,76,0.00,,,0.00,WUHU216HW,2013-01-13 15:30:00,
2013-01-13 10:35:00,47.5,40.3,29.39,ENE,68,4.5,4.5,76,0.00,,,0.00,WUHU216HW,2013-01-13 15:35:00,
2013-01-13 11:00:00,51.7,46.4,29.38,NNE,23,0.9,0.9,82,0.00,,,0.00,WUHU216HW,2013-01-13 16:00:00,
2013-01-13 11:05:00,51.7,46.4,29.38,NNE,23,0.9,0.9,82,0.00,,,0.00,WUHU216HW,2013-01-13 16:05:00,
2013-01-13 11:30:00,55.8,51.3,29.36,ESE,113,3.6,3.6,85,0.00,,,0.00,WUHU216HW,2013-01-13 16:30:00,
2013-01-13 11:35:00,55.8,51.3,29.36,ESE,113,3.6,3.6,85,0.00,,,0.00,WUHU216HW,2013-01-13 16:35:00,
2013-01-13 12:00:00,57.6,53.1,29.35,ENE,68,1.8,1.8,85,0.00,,,0.00,WUHU216HW,2013-01-13 17:00:00,
2013-01-13 12:05:00,57.6,53.1,29.35,ENE,68,1.8,1.8,85,0.00,,,0.00,WUHU216HW,2013-01-13 17:05:00,
2013-01-13 12:30:00,60.5,55.0,29.33,East,90,2.2,2.2,82,0.00,,,0.00,WUHU216HW,2013-01-13 17:30:00,
2013-01-13 12:35:00,60.5,55.0,29.33,East,90,2.2,2.2,82,0.00,,,0.00,WUHU216HW,2013-01-13 17:35:00,
2013-01-13 13:00:00,62.3,55.3,29.32,ESE,113,5.6,5.6,78,0.00,,,0.00,WUHU216HW,2013-01-13 18:00:00,
2013-01-13 13:05:00,62.3,55.3,29.32,ESE,113,5.6,5.6,78,0.00,,,0.00,WUHU216HW,2013-01-13 18:05:00,
2013-01-13 13:30:00,62.3,54.9,29.31,East,90,4.9,4.9,77,0.00,,,0.00,WUHU216HW,2013-01-13 18:30:00,
2013-01-13 13:35:00,62.3,54.9,29.31,East,90,4.9,4.9,77,0.00,,,0.00,WUHU216HW,2013-01-13 18:35:00,
2013-01-13 14:00:00,62.5,55.1,29.31,ESE,113,6.3,6.3,77,0.00,,,0.00,WUHU216HW,2013-01-13 19:00:00,
2013-01-13 14:05:00,62.5,55.1,29.31,ESE,113,6.3,6.3,77,0.00,,,0.00,WUHU216HW,2013-01-13 19:05:00,
2013-01-13 14:30:00,62.8,55.1,29.31,South,180,2.5,2.5,76,0.00,,,0.00,WUHU216HW,2013-01-13 19:30:00,
2013-01-13 14:35:00,62.8,55.1,29.31,South,180,2.5,2.5,76,0.00,,,0.00,WUHU216HW,2013-01-13 19:35:00,
2013-01-13 15:00:00,62.5,54.7,29.31,ESE,113,2.0,2.0,76,0.00,,,0.00,WUHU216HW,2013-01-13 20:00:00,
2013-01-13 15:05:00,62.5,54.7,29.31,ESE,113,2.0,2.0,76,0.00,,,0.00,WUHU216HW,2013-01-13 20:05:00,
2013-01-13 15:30:00,62.1,54.1,29.32,SE,135,2.5,2.5,75,0.00,,,0.00,WUHU216HW,2013-01-13 20:30:00,
2013-01-13 15:35:00,62.1,54.1,29.32,SE,135,2.5,2.5,75,0.00,,,0.00,WUHU216HW,2013-01-13 20:35:00,
2013-01-13 16:00:00,60.7,53.1,29.33,SSE,158,4.0,4.0,76,0.00,,,0.00,WUHU216HW,2013-01-13 21:00:00,
2013-01-13 16:05:00,60.7,53.1,29.33,SSE,158,4.0,4.0,76,0.00,,,0.00,WUHU216HW,2013-01-13 21:05:00,
2013-01-13 16:30:00,59.0,52.6,29.33,East,90,1.6,1.6,79,0.00,,,0.00,WUHU216HW,2013-01-13 21:30:00,
2013-01-13 16:35:00,59.0,52.6,29.33,East,90,1.6,1.6,79,0.00,,,0.00,WUHU216HW,2013-01-13 21:35:00,
2013-01-13 17:00:00,58.0,51.8,29.33,SSE,158,1.3,1.3,80,0.00,,,0.00,WUHU216HW,2013-01-13 22:00:00,
2013-01-13 17:05:00,58.0,51.8,29.33,SSE,158,1.3,1.3,80,0.00,,,0.00,WUHU216HW,2013-01-13 22:05:00,
2013-01-13 17:30:00,56.9,51.1,29.33,SE,135,1.8,1.8,81,0.00,,,0.00,WUHU216HW,2013-01-13 22:30:00,
2013-01-13 17:35:00,56.9,51.1,29.33,SE,135,1.8,1.8,81,0.00,,,0.00,WUHU216HW,2013-01-13 22:35:00,
2013-01-13 18:00:00,55.8,50.3,29.32,SE,135,1.8,1.8,82,0.00,,,0.00,WUHU216HW,2013-01-13 23:00:00,
2013-01-13 18:05:00,55.8,50.3,29.32,SE,135,1.8,1.8,82,0.00,,,0.00,WUHU216HW,2013-01-13 23:05:00,
2013-01-13 18:30:00,54.4,49.0,29.32,WNW,293,1.6,1.6,82,0.00,,,0.00,WUHU216HW,2013-01-13 23:30:00,
2013-01-13 18:35:00,54.4,49.0,29.32,WNW,293,1.6,1.6,82,0.00,,,0.00,WUHU216HW,2013-01-13 23:35:00,
2013-01-13 19:00:00,54.0,49.2,29.32,SSW,203,0.7,0.7,84,0.00,,,0.00,WUHU216HW,2013-01-14 00:00:00,
2013-01-13 19:05:00,54.0,49.2,29.32,SSW,203,0.7,0.7,84,0.00,,,0.00,WUHU216HW,2013-01-14 00:05:00,
2013-01-13 19:30:00,53.6,49.0,29.32,NW,315,1.1,1.1,84,0.00,,,0.00,WUHU216HW,2013-01-14 00:30:00,
2013-01-13 19:35:00,53.6,49.0,29.32,NW,315,1.1,1.1,84,0.00,,,0.00,WUHU216HW,2013-01-14 00:35:00,
2013-01-13 20:00:00,52.6,48.2,29.29,SE,135,3.4,3.4,85,0.00,,,0.00,WUHU216HW,2013-01-14 01:00:00,
2013-01-13 20:05:00,52.6,48.2,29.29,SE,135,3.4,3.4,85,0.00,,,0.00,WUHU216HW,2013-01-14 01:05:00,
2013-01-13 20:30:00,52.6,48.2,29.30,West,270,0.7,0.7,85,0.00,,,0.00,WUHU216HW,2013-01-14 01:30:00,
2013-01-13 20:35:00,52.6,48.2,29.30,West,270,0.7,0.7,85,0.00,,,0.00,WUHU216HW,2013-01-14 01:35:00,
2013-01-13 21:00:00,52.2,48.1,29.29,NNW,338,0.0,0.0,86,0.00,,,0.00,WUHU216HW,2013-01-14 02:00:00,
2013-01-13 21:05:00,52.2,48.1,29.29,NNW,338,0.0,0.0,86,0.00,,,0.00,WUHU216HW,2013-01-14 02:05:00,
2013-01-13 21:30:00,51.8,47.7,29.28,SE,135,3.6,3.6,86,0.00,,,0.00,WUHU216HW,2013-01-14 02:30:00,
2013-01-13 21:35:00,51.8,47.7,29.28,SE,135,3.6,3.6,86,0.00,,,0.00,WUHU216HW,2013-01-14 02:35:00,
2013-01-13 22:00:00,51.3,47.2,29.30,NNE,23,1.8,1.8,86,0.00,,,0.00,WUHU216HW,2013-01-14 03:00:00,
2013-01-13 22:05:00,51.3,47.2,29.30,NNE,23,1.8,1.8,86,0.00,,,0.00,WUHU216HW,2013-01-14 03:05:00,
2013-01-13 22:30:00,51.5,47.3,29.28,West,270,0.2,0.2,86,0.00,,,0.00,WUHU216HW,2013-01-14 03:30:00,
2013-01-13 22:35:00,51.5,47.3,29.28,West,270,0.2,0.2,86,0.00,,,0.00,WUHU216HW,2013-01-14 03:35:00,
2013-01-13 23:00:00,51.5,47.3,29.29,NNW,338,0.4,0.4,86,0.00,,,0.00,WUHU216HW,2013-01-14 04:00:00,
2013-01-13 23:05:00,51.5,47.3,29.29,NNW,338,0.4,0.4,86,0.00,,,0.00,WUHU216HW,2013-01-14 04:05:00,
2013-01-13 23:30:00,51.3,46.9,29.28,West,270,2.2,2.2,85,0.00,,,0.00,WUHU216HW,2013-01-14 04:30:00,
2013-01-13 23:35:00,51.3,46.9,29.28,West,270,2.2,2.2,85,0.00,,,0.00,WUHU216HW,2013-01-14 04:35:00,